Time;durP1;ratioP1;P1;durP2;ratioP2;P2;SDS_P1;SDS_P2;PMS_P1;PMS_P2;Temp;Humidity;BMP_temperature;BMP_pressure;BME280_temperature;BME280_humidity;BME280_pressure;Samples;Min_cycle;Max_cycle;Signal;HPM_P1;HPM_P2
2021/01/17 00:01:10;;;;;;;42.37;24.40;;;;;;;;;;5016933;28;20224;-67
2021/01/17 00:03:35;;;;;;;47.07;24.73;;;;;;;;;;5030131;28;20197;-67
2021/01/17 00:06:02;;;;;;;44.43;23.80;;;;;;;;;;5015525;28;22232;-67
2021/01/17 00:08:27;;;;;;;48.07;26.00;;;;;;;;;;5027028;28;20173;-66
2021/01/17 00:10:52;;;;;;;45.87;25.63;;;;;;;;;;5029408;28;20231;-66
2021/01/17 00:13:18;;;;;;;43.80;25.13;;;;;;;;;;5033354;28;20224;-67
2021/01/17 00:15:44;;;;;;;47.07;25.50;;;;;;;;;;5031835;28;20182;-67
2021/01/17 00:18:09;;;;;;;47.73;26.83;;;;;;;;;;5028806;28;20169;-67
2021/01/17 00:20:34;;;;;;;46.87;24.93;;;;;;;;;;5034879;28;20224;-66
2021/01/17 00:23:06;;;;;;;44.00;25.50;;;;;;;;;;5033251;28;20217;-67
2021/01/17 00:25:31;;;;;;;44.77;24.53;;;;;;;;;;5033344;28;20629;-66
2021/01/17 00:27:58;;;;;;;45.20;24.90;;;;;;;;;;5030976;28;20177;-66
2021/01/17 00:30:24;;;;;;;46.07;25.93;;;;;;;;;;5034345;28;20189;-67
2021/01/17 00:32:54;;;;;;;49.87;28.27;;;;;;;;;;5030450;28;20264;-66
2021/01/17 00:35:20;;;;;;;44.97;25.10;;;;;;;;;;5027990;28;20258;-67
2021/01/17 00:37:49;;;;;;;45.33;26.30;;;;;;;;;;5027608;28;20186;-68
2021/01/17 00:40:14;;;;;;;48.63;26.20;;;;;;;;;;5028732;28;20320;-67
2021/01/17 00:42:43;;;;;;;46.17;25.10;;;;;;;;;;5022778;28;20301;-67
2021/01/17 00:45:09;;;;;;;49.37;26.70;;;;;;;;;;5031000;28;20192;-67
2021/01/17 00:47:34;;;;;;;49.33;26.87;;;;;;;;;;5028150;28;20558;-67
2021/01/17 00:49:59;;;;;;;49.20;26.75;;;;;;;;;;5028751;28;20280;-66
2021/01/17 00:52:24;;;;;;;46.57;27.10;;;;;;;;;;5027552;28;20188;-66
2021/01/17 00:54:49;;;;;;;54.37;27.17;;;;;;;;;;5028653;28;20209;-67
2021/01/17 00:57:15;;;;;;;52.43;27.07;;;;;;;;;;5037225;28;20181;-66
2021/01/17 00:59:40;;;;;;;49.00;27.10;;;;;;;;;;5031769;28;20183;-67
2021/01/17 01:02:05;;;;;;;47.10;25.70;;;;;;;;;;5044208;28;20353;-67
2021/01/17 01:04:31;;;;;;;49.63;28.83;;;;;;;;;;5038220;28;20208;-67
2021/01/17 01:06:56;;;;;;;52.77;26.93;;;;;;;;;;5033998;28;20552;-68
2021/01/17 01:09:22;;;;;;;51.10;26.80;;;;;;;;;;5032184;28;20227;-67
2021/01/17 01:11:48;;;;;;;53.43;27.33;;;;;;;;;;5034879;28;20193;-68
2021/01/17 01:14:13;;;;;;;50.30;26.83;;;;;;;;;;5032919;28;20205;-67
2021/01/17 01:16:38;;;;;;;57.47;28.27;;;;;;;;;;5033434;28;20221;-67
2021/01/17 01:19:04;;;;;;;54.10;27.17;;;;;;;;;;5029951;28;20232;-67
2021/01/17 01:21:35;;;;;;;58.47;28.53;;;;;;;;;;5019527;28;20192;-67
2021/01/17 01:24:00;;;;;;;52.07;27.17;;;;;;;;;;5041438;28;20225;-67
2021/01/17 01:26:25;;;;;;;59.40;28.40;;;;;;;;;;5034618;28;20193;-68
2021/01/17 01:28:52;;;;;;;55.33;27.53;;;;;;;;;;5019937;28;20204;-68
2021/01/17 01:31:18;;;;;;;54.57;28.70;;;;;;;;;;5030566;28;20189;-67
2021/01/17 01:33:43;;;;;;;53.43;27.70;;;;;;;;;;5035417;28;20580;-67
2021/01/17 01:36:09;;;;;;;54.50;29.13;;;;;;;;;;5031168;28;20211;-67
2021/01/17 01:38:34;;;;;;;55.43;27.50;;;;;;;;;;5031490;28;20744;-67
2021/01/17 01:40:59;;;;;;;50.90;25.97;;;;;;;;;;5017363;28;20177;-68
2021/01/17 01:43:24;;;;;;;51.80;27.30;;;;;;;;;;5031823;28;20202;-68
2021/01/17 01:45:50;;;;;;;54.37;27.77;;;;;;;;;;5033062;28;20296;-68
2021/01/17 01:48:16;;;;;;;52.90;26.23;;;;;;;;;;5031386;28;20193;-68
2021/01/17 01:50:41;;;;;;;55.27;27.10;;;;;;;;;;5034675;28;20193;-68
2021/01/17 01:53:06;;;;;;;49.73;27.00;;;;;;;;;;5032472;28;20205;-68
2021/01/17 01:55:32;;;;;;;46.73;26.27;;;;;;;;;;5036141;28;20180;-67
2021/01/17 01:57:59;;;;;;;56.80;27.87;;;;;;;;;;5031200;28;20186;-67
2021/01/17 02:00:24;;;;;;;61.20;27.07;;;;;;;;;;5034853;28;20174;-67
2021/01/17 02:02:50;;;;;;;49.83;26.20;;;;;;;;;;5032716;28;20620;-67
2021/01/17 02:05:15;;;;;;;53.93;27.10;;;;;;;;;;5029386;28;20196;-68
2021/01/17 02:07:57;;;;;;;54.60;28.53;;;;;;;;;;5027588;28;20190;-67
2021/01/17 02:10:23;;;;;;;48.57;24.67;;;;;;;;;;5031566;28;21370;-68
2021/01/17 02:13:07;;;;;;;56.27;26.10;;;;;;;;;;5032877;28;20861;-68
2021/01/17 02:15:33;;;;;;;54.40;26.43;;;;;;;;;;5036995;28;20197;-67
2021/01/17 02:18:00;;;;;;;50.10;26.70;;;;;;;;;;5032271;28;20189;-67
2021/01/17 02:20:27;;;;;;;50.87;25.43;;;;;;;;;;5032049;28;20312;-68
2021/01/17 02:23:01;;;;;;;46.23;25.47;;;;;;;;;;5031353;28;20218;-68
2021/01/17 02:25:28;;;;;;;50.33;25.83;;;;;;;;;;5034117;28;20191;-68
2021/01/17 02:27:54;;;;;;;56.97;27.20;;;;;;;;;;5020842;28;20931;-68
2021/01/17 02:30:20;;;;;;;55.00;27.40;;;;;;;;;;5032643;28;20178;-68
2021/01/17 02:32:48;;;;;;;62.73;28.47;;;;;;;;;;5030626;28;20233;-68
2021/01/17 02:35:14;;;;;;;57.63;27.53;;;;;;;;;;5029814;28;20213;-67
2021/01/17 02:37:39;;;;;;;49.80;27.37;;;;;;;;;;5028664;28;20259;-67
2021/01/17 02:40:07;;;;;;;53.00;25.50;;;;;;;;;;5029492;28;20198;-67
2021/01/17 02:42:33;;;;;;;45.47;24.50;;;;;;;;;;5049019;28;20255;-68
2021/01/17 02:44:59;;;;;;;55.80;26.53;;;;;;;;;;5034110;28;20190;-68
2021/01/17 02:47:25;;;;;;;46.63;26.07;;;;;;;;;;5049283;28;20193;-69
2021/01/17 02:49:51;;;;;;;51.50;27.40;;;;;;;;;;5031535;28;20189;-69
2021/01/17 02:52:20;;;;;;;52.40;25.73;;;;;;;;;;5050473;28;20186;-68
2021/01/17 02:54:47;;;;;;;50.93;26.73;;;;;;;;;;5047656;28;20213;-68
2021/01/17 02:57:13;;;;;;;49.73;26.50;;;;;;;;;;5052387;28;20376;-69
2021/01/17 02:59:49;;;;;;;53.93;26.80;;;;;;;;;;5050786;28;20273;-69
2021/01/17 03:02:14;;;;;;;53.20;24.70;;;;;;;;;;5051749;28;20182;-68
2021/01/17 03:04:46;;;;;;;45.60;24.97;;;;;;;;;;5044455;28;20256;-69
2021/01/17 03:07:12;;;;;;;43.70;23.33;;;;;;;;;;5050322;28;20185;-68
2021/01/17 03:09:38;;;;;;;51.00;26.90;;;;;;;;;;5031399;28;20181;-68
2021/01/17 03:12:03;;;;;;;50.80;25.50;;;;;;;;;;5048940;28;20177;-68
2021/01/17 03:14:31;;;;;;;52.33;25.93;;;;;;;;;;5051225;28;20298;-69
2021/01/17 03:16:56;;;;;;;52.50;27.03;;;;;;;;;;5051095;28;20924;-69
2021/01/17 03:19:21;;;;;;;50.40;26.07;;;;;;;;;;5051467;28;20186;-68
2021/01/17 03:21:46;;;;;;;55.23;25.30;;;;;;;;;;5056509;28;20195;-69
2021/01/17 03:24:11;;;;;;;48.27;26.03;;;;;;;;;;5051300;28;20252;-69
2021/01/17 03:26:36;;;;;;;49.97;25.20;;;;;;;;;;5049822;28;20170;-69
2021/01/17 03:29:01;;;;;;;53.13;26.87;;;;;;;;;;5047306;28;20185;-68
2021/01/17 03:31:27;;;;;;;48.83;25.17;;;;;;;;;;5050425;28;20205;-69
2021/01/17 03:33:52;;;;;;;52.13;26.50;;;;;;;;;;5054066;28;20209;-69
2021/01/17 03:36:17;;;;;;;53.20;26.43;;;;;;;;;;5045780;28;20189;-69
2021/01/17 03:38:42;;;;;;;54.73;28.17;;;;;;;;;;5049809;28;20182;-69
2021/01/17 03:41:10;;;;;;;49.73;27.13;;;;;;;;;;5043479;28;20263;-69
2021/01/17 03:43:35;;;;;;;46.63;25.70;;;;;;;;;;5047068;28;20208;-69
2021/01/17 03:46:00;;;;;;;55.00;27.17;;;;;;;;;;5050480;28;20193;-69
2021/01/17 03:48:25;;;;;;;44.73;25.40;;;;;;;;;;5050720;28;20204;-69
2021/01/17 03:50:51;;;;;;;48.20;25.17;;;;;;;;;;5039868;28;20269;-68
2021/01/17 03:53:16;;;;;;;50.00;27.27;;;;;;;;;;5029286;28;20205;-68
2021/01/17 03:55:41;;;;;;;46.90;25.80;;;;;;;;;;5027933;28;20189;-69
2021/01/17 03:58:06;;;;;;;56.43;28.30;;;;;;;;;;5031283;28;20185;-68
2021/01/17 04:00:31;;;;;;;54.10;29.33;;;;;;;;;;5028653;28;20690;-68
2021/01/17 04:02:56;;;;;;;57.13;27.57;;;;;;;;;;5028606;28;20198;-68
2021/01/17 04:05:22;;;;;;;48.20;27.23;;;;;;;;;;5027534;28;20748;-69
2021/01/17 04:07:47;;;;;;;51.30;26.03;;;;;;;;;;5035856;28;20212;-69
2021/01/17 04:10:13;;;;;;;54.37;29.30;;;;;;;;;;5048330;28;20193;-69
2021/01/17 04:12:38;;;;;;;53.97;27.13;;;;;;;;;;5051518;28;20196;-69
2021/01/17 04:15:03;;;;;;;48.80;26.10;;;;;;;;;;5044024;28;20575;-69
2021/01/17 04:17:28;;;;;;;52.83;26.17;;;;;;;;;;5028695;28;20181;-69
2021/01/17 04:19:54;;;;;;;54.53;26.90;;;;;;;;;;5032048;28;20165;-68
2021/01/17 04:22:19;;;;;;;51.60;26.93;;;;;;;;;;5029168;28;20223;-69
2021/01/17 04:24:44;;;;;;;47.60;26.17;;;;;;;;;;5031403;28;21584;-69
2021/01/17 04:27:09;;;;;;;50.50;25.80;;;;;;;;;;5013730;28;20652;-68
2021/01/17 04:29:34;;;;;;;47.10;25.10;;;;;;;;;;5025646;28;20181;-68
2021/01/17 04:32:00;;;;;;;51.03;26.87;;;;;;;;;;5031139;28;20178;-69
2021/01/17 04:34:25;;;;;;;52.47;27.27;;;;;;;;;;5040560;28;20590;-69
2021/01/17 04:36:50;;;;;;;52.77;26.63;;;;;;;;;;5035157;28;20174;-69
2021/01/17 04:39:15;;;;;;;50.17;25.37;;;;;;;;;;5027572;28;20219;-68
2021/01/17 04:41:41;;;;;;;47.47;26.43;;;;;;;;;;5030876;28;20265;-68
2021/01/17 04:44:08;;;;;;;49.37;26.07;;;;;;;;;;5028775;28;20312;-68
2021/01/17 04:46:33;;;;;;;46.53;27.37;;;;;;;;;;5027088;28;20194;-68
2021/01/17 04:49:02;;;;;;;49.67;26.23;;;;;;;;;;5034242;28;20195;-67
2021/01/17 04:51:28;;;;;;;49.10;26.00;;;;;;;;;;5032568;28;20181;-68
2021/01/17 04:53:54;;;;;;;49.83;25.97;;;;;;;;;;5025867;28;20232;-67
2021/01/17 04:56:37;;;;;;;46.20;25.60;;;;;;;;;;5042540;28;20230;-68
2021/01/17 04:59:10;;;;;;;43.50;23.83;;;;;;;;;;5046548;28;20186;-68
2021/01/17 05:01:47;;;;;;;54.43;26.53;;;;;;;;;;5031835;28;20185;-68
2021/01/17 05:04:24;;;;;;;47.07;25.83;;;;;;;;;;5029276;28;20264;-67
2021/01/17 05:06:52;;;;;;;45.57;26.00;;;;;;;;;;5027315;28;20208;-67
2021/01/17 05:09:19;;;;;;;50.13;24.67;;;;;;;;;;5027583;28;20185;-68
2021/01/17 05:11:48;;;;;;;44.80;25.07;;;;;;;;;;5027406;28;20294;-68
2021/01/17 05:14:14;;;;;;;46.10;27.27;;;;;;;;;;5027571;28;20222;-67
2021/01/17 05:16:43;;;;;;;46.33;25.33;;;;;;;;;;5031293;28;20185;-67
2021/01/17 05:19:12;;;;;;;47.90;24.93;;;;;;;;;;5034638;28;20201;-67
2021/01/17 05:21:38;;;;;;;47.37;25.63;;;;;;;;;;5029680;28;20212;-67
2021/01/17 05:24:06;;;;;;;55.97;28.53;;;;;;;;;;5031729;28;20218;-69
2021/01/17 05:26:33;;;;;;;42.93;22.93;;;;;;;;;;5023816;28;20256;-67
2021/01/17 05:28:58;;;;;;;48.07;26.43;;;;;;;;;;5027379;28;20292;-67
2021/01/17 05:31:25;;;;;;;51.83;25.27;;;;;;;;;;5031848;28;20651;-67
2021/01/17 05:33:50;;;;;;;46.63;24.40;;;;;;;;;;5029790;28;20598;-67
2021/01/17 05:36:16;;;;;;;48.93;24.57;;;;;;;;;;5029420;28;20197;-67
2021/01/17 05:38:41;;;;;;;47.73;24.63;;;;;;;;;;5028420;28;20647;-67
2021/01/17 05:41:09;;;;;;;44.90;25.00;;;;;;;;;;5030593;28;20971;-67
2021/01/17 05:43:34;;;;;;;45.70;26.67;;;;;;;;;;5035207;28;20212;-68
2021/01/17 05:45:59;;;;;;;47.20;25.60;;;;;;;;;;5031778;28;20604;-67
2021/01/17 05:48:24;;;;;;;49.80;23.63;;;;;;;;;;5034409;28;20186;-67
2021/01/17 05:50:49;;;;;;;42.83;24.47;;;;;;;;;;5035238;28;21013;-68
2021/01/17 05:53:14;;;;;;;42.43;22.37;;;;;;;;;;5029852;28;20209;-68
2021/01/17 05:55:43;;;;;;;52.60;25.98;;;;;;;;;;5031294;28;20674;-67
2021/01/17 05:58:22;;;;;;;44.53;23.53;;;;;;;;;;5015420;28;20189;-67
2021/01/17 06:00:47;;;;;;;49.13;24.37;;;;;;;;;;5031786;28;20179;-67
2021/01/17 06:03:16;;;;;;;40.37;23.17;;;;;;;;;;5031356;28;20651;-67
2021/01/17 06:05:42;;;;;;;48.77;25.13;;;;;;;;;;5033347;28;20217;-68
2021/01/17 06:08:07;;;;;;;49.10;24.67;;;;;;;;;;5031459;28;20186;-67
2021/01/17 06:10:33;;;;;;;41.63;22.80;;;;;;;;;;5030101;28;20187;-68
2021/01/17 06:12:58;;;;;;;50.13;26.07;;;;;;;;;;5030127;28;20221;-67
2021/01/17 06:15:30;;;;;;;53.07;27.20;;;;;;;;;;5037648;28;20305;-68
2021/01/17 06:17:57;;;;;;;40.00;22.57;;;;;;;;;;5032715;28;20188;-68
2021/01/17 06:20:26;;;;;;;41.10;21.80;;;;;;;;;;5032419;28;20181;-68
2021/01/17 06:22:55;;;;;;;41.90;23.10;;;;;;;;;;5034522;28;20218;-67
2021/01/17 06:25:25;;;;;;;41.73;24.03;;;;;;;;;;5031886;28;20181;-68
2021/01/17 06:27:50;;;;;;;47.13;22.80;;;;;;;;;;5016882;28;20194;-67
2021/01/17 06:30:18;;;;;;;39.37;23.43;;;;;;;;;;5033374;28;20190;-68
2021/01/17 06:32:47;;;;;;;39.10;21.73;;;;;;;;;;5031998;28;20205;-68
2021/01/17 06:35:12;;;;;;;41.13;21.23;;;;;;;;;;5033260;28;20872;-67
2021/01/17 06:37:37;;;;;;;39.47;22.40;;;;;;;;;;5030047;28;20306;-67
2021/01/17 06:40:06;;;;;;;38.77;21.67;;;;;;;;;;5032808;28;20181;-66
2021/01/17 06:42:31;;;;;;;40.33;23.57;;;;;;;;;;5031749;28;20233;-66
2021/01/17 06:44:56;;;;;;;39.57;20.33;;;;;;;;;;5030555;28;20727;-66
2021/01/17 06:47:25;;;;;;;35.07;19.97;;;;;;;;;;5029697;28;20201;-68
2021/01/17 06:49:51;;;;;;;36.40;19.23;;;;;;;;;;5032942;28;20178;-68
2021/01/17 06:52:17;;;;;;;33.43;17.00;;;;;;;;;;5031487;28;20189;-66
2021/01/17 06:54:43;;;;;;;40.87;19.03;;;;;;;;;;5031890;28;20296;-67
2021/01/17 06:57:09;;;;;;;37.30;17.60;;;;;;;;;;5029923;28;20240;-66
2021/01/17 06:59:43;;;;;;;36.97;16.60;;;;;;;;;;5030098;28;20185;-67
2021/01/17 07:02:15;;;;;;;30.00;15.97;;;;;;;;;;5019781;28;20181;-67
2021/01/17 07:04:41;;;;;;;36.53;17.20;;;;;;;;;;5028131;28;20564;-67
2021/01/17 07:07:12;;;;;;;32.00;16.43;;;;;;;;;;5028893;28;20496;-67
2021/01/17 07:09:37;;;;;;;33.20;16.10;;;;;;;;;;5031614;28;20219;-67
2021/01/17 07:12:26;;;;;;;33.03;15.60;;;;;;;;;;5033216;28;20185;-67
2021/01/17 07:15:08;;;;;;;38.60;15.20;;;;;;;;;;5022567;28;21872;-66
2021/01/17 07:17:34;;;;;;;32.77;12.70;;;;;;;;;;5028463;28;20312;-67
2021/01/17 07:20:07;;;;;;;30.07;10.63;;;;;;;;;;5015617;28;20268;-67
2021/01/17 07:22:32;;;;;;;35.00;12.07;;;;;;;;;;5036363;28;20577;-69
2021/01/17 07:24:58;;;;;;;35.63;10.17;;;;;;;;;;5031024;28;20551;-67
2021/01/17 07:27:24;;;;;;;28.03;8.40;;;;;;;;;;5028550;28;20197;-67
2021/01/17 07:29:50;;;;;;;25.98;8.45;;;;;;;;;;5029487;28;20185;-66
2021/01/17 07:32:35;;;;;;;29.13;9.23;;;;;;;;;;5029411;28;20194;-69
2021/01/17 07:35:05;;;;;;;30.87;8.80;;;;;;;;;;5033255;28;20231;-67
2021/01/17 07:37:32;;;;;;;25.23;8.00;;;;;;;;;;5031824;28;20185;-67
2021/01/17 07:39:57;;;;;;;25.37;8.77;;;;;;;;;;5031064;28;20178;-67
2021/01/17 07:42:23;;;;;;;36.40;7.87;;;;;;;;;;5034636;28;20681;-67
2021/01/17 07:44:53;;;;;;;34.83;7.77;;;;;;;;;;5034413;28;20182;-68
2021/01/17 07:47:27;;;;;;;33.00;7.80;;;;;;;;;;5027915;28;20299;-68
2021/01/17 07:49:52;;;;;;;33.13;6.80;;;;;;;;;;5029687;28;20188;-68
2021/01/17 07:52:18;;;;;;;20.93;6.80;;;;;;;;;;5028534;28;20186;-67
2021/01/17 07:54:44;;;;;;;17.07;6.43;;;;;;;;;;5032142;28;20202;-67
2021/01/17 07:57:09;;;;;;;31.70;7.37;;;;;;;;;;5026628;28;20204;-67
2021/01/17 07:59:35;;;;;;;28.20;6.60;;;;;;;;;;5013666;28;20186;-67
2021/01/17 08:02:00;;;;;;;29.40;7.03;;;;;;;;;;5029702;28;20186;-67
2021/01/17 08:04:26;;;;;;;35.63;7.37;;;;;;;;;;5027810;28;20199;-67
2021/01/17 08:06:57;;;;;;;31.17;6.67;;;;;;;;;;5027115;28;20190;-67
2021/01/17 08:09:41;;;;;;;28.60;6.47;;;;;;;;;;5028165;28;20736;-67
2021/01/17 08:12:06;;;;;;;33.13;8.43;;;;;;;;;;5028200;28;20193;-67
2021/01/17 08:14:33;;;;;;;29.93;7.53;;;;;;;;;;5031333;28;20217;-68
2021/01/17 08:17:17;;;;;;;24.83;6.87;;;;;;;;;;5018423;28;20196;-68
2021/01/17 08:20:01;;;;;;;26.27;5.63;;;;;;;;;;5029860;28;20181;-68
2021/01/17 08:22:28;;;;;;;22.67;6.27;;;;;;;;;;5026464;28;20247;-68
2021/01/17 08:24:54;;;;;;;25.73;6.33;;;;;;;;;;5026679;28;20204;-67
2021/01/17 08:27:32;;;;;;;27.53;6.00;;;;;;;;;;5028771;28;20284;-68
2021/01/17 08:30:00;;;;;;;19.83;5.93;;;;;;;;;;5031917;28;20649;-67
2021/01/17 08:32:37;;;;;;;24.70;6.00;;;;;;;;;;5029882;28;20189;-67
2021/01/17 08:35:17;;;;;;;22.63;6.20;;;;;;;;;;5036396;28;20213;-68
2021/01/17 08:37:51;;;;;;;26.97;6.17;;;;;;;;;;5035415;28;20252;-67
2021/01/17 08:40:17;;;;;;;28.03;7.10;;;;;;;;;;5034803;28;20184;-67
2021/01/17 08:42:50;;;;;;;22.73;6.47;;;;;;;;;;5032695;28;20246;-67
2021/01/17 08:45:21;;;;;;;30.97;7.27;;;;;;;;;;5028547;28;20201;-67
2021/01/17 08:47:50;;;;;;;32.40;5.93;;;;;;;;;;5030115;28;20192;-67
2021/01/17 08:50:34;;;;;;;25.53;5.87;;;;;;;;;;5030227;28;20190;-68
2021/01/17 08:53:18;;;;;;;28.90;6.53;;;;;;;;;;5028202;28;20217;-67
2021/01/17 08:55:44;;;;;;;27.30;8.23;;;;;;;;;;5028576;28;20220;-67
2021/01/17 08:58:13;;;;;;;26.47;6.07;;;;;;;;;;5028054;28;20228;-66
2021/01/17 09:00:47;;;;;;;31.80;6.17;;;;;;;;;;5029850;28;20178;-67
2021/01/17 09:03:22;;;;;;;35.40;5.90;;;;;;;;;;5027459;28;20216;-67
2021/01/17 09:05:47;;;;;;;28.60;6.43;;;;;;;;;;5028838;28;20705;-67
2021/01/17 09:08:13;;;;;;;28.50;7.63;;;;;;;;;;5027260;28;20193;-67
2021/01/17 09:10:38;;;;;;;33.43;7.77;;;;;;;;;;5030094;28;20181;-67
2021/01/17 09:13:04;;;;;;;28.93;6.33;;;;;;;;;;5027663;28;20664;-67
2021/01/17 09:15:31;;;;;;;28.87;7.90;;;;;;;;;;5033503;28;20213;-69
2021/01/17 09:17:57;;;;;;;33.23;9.03;;;;;;;;;;5038498;28;20177;-67
2021/01/17 09:20:22;;;;;;;31.83;9.97;;;;;;;;;;5030489;28;20184;-66
2021/01/17 09:22:49;;;;;;;33.07;9.60;;;;;;;;;;5032628;28;20673;-67
2021/01/17 09:25:14;;;;;;;23.47;6.10;;;;;;;;;;5029856;28;20185;-67
2021/01/17 09:27:40;;;;;;;33.70;6.70;;;;;;;;;;5032048;28;20186;-67
2021/01/17 09:30:07;;;;;;;20.93;5.27;;;;;;;;;;5033737;28;20189;-67
2021/01/17 09:32:33;;;;;;;24.50;6.30;;;;;;;;;;5036277;28;20205;-67
2021/01/17 09:35:03;;;;;;;19.27;5.00;;;;;;;;;;5035597;28;20219;-67
2021/01/17 09:37:31;;;;;;;24.73;4.90;;;;;;;;;;5033255;28;20178;-67
2021/01/17 09:39:56;;;;;;;23.33;5.60;;;;;;;;;;5041399;28;20243;-67
2021/01/17 09:42:26;;;;;;;17.93;5.30;;;;;;;;;;5034199;28;20178;-67
2021/01/17 09:44:55;;;;;;;16.73;5.57;;;;;;;;;;5037582;28;20176;-67
2021/01/17 09:47:21;;;;;;;18.33;5.30;;;;;;;;;;5032754;28;20181;-67
2021/01/17 09:49:47;;;;;;;20.27;5.00;;;;;;;;;;5016667;28;20182;-67
2021/01/17 09:52:13;;;;;;;21.77;5.47;;;;;;;;;;5029696;28;20612;-66
2021/01/17 09:54:39;;;;;;;18.37;5.10;;;;;;;;;;5034717;28;20210;-67
2021/01/17 09:57:20;;;;;;;16.77;6.23;;;;;;;;;;5035120;28;20186;-67
2021/01/17 09:59:46;;;;;;;13.50;4.10;;;;;;;;;;5014130;28;20201;-69
2021/01/17 10:02:11;;;;;;;16.43;4.87;;;;;;;;;;5018836;28;20174;-66
2021/01/17 10:04:37;;;;;;;22.07;4.40;;;;;;;;;;5033243;28;20735;-68
2021/01/17 10:07:02;;;;;;;19.50;4.63;;;;;;;;;;5032307;28;20190;-66
2021/01/17 10:09:27;;;;;;;13.73;3.67;;;;;;;;;;5031465;28;20227;-69
2021/01/17 10:11:53;;;;;;;17.40;4.63;;;;;;;;;;5031513;28;20204;-66
2021/01/17 10:14:26;;;;;;;15.77;5.57;;;;;;;;;;5031864;28;20210;-68
2021/01/17 10:16:52;;;;;;;15.27;4.10;;;;;;;;;;5043499;28;20190;-69
2021/01/17 10:19:24;;;;;;;17.87;5.13;;;;;;;;;;5036778;28;20243;-67
2021/01/17 10:21:50;;;;;;;16.27;4.87;;;;;;;;;;5035094;28;20200;-66
2021/01/17 10:24:19;;;;;;;19.37;4.43;;;;;;;;;;5032003;28;20738;-66
2021/01/17 10:26:45;;;;;;;20.80;5.53;;;;;;;;;;5029903;28;20178;-67
2021/01/17 10:29:11;;;;;;;21.67;4.40;;;;;;;;;;5029315;28;20186;-66
2021/01/17 10:31:36;;;;;;;17.60;4.97;;;;;;;;;;5017849;28;20662;-67
2021/01/17 10:34:02;;;;;;;16.87;4.37;;;;;;;;;;5015675;28;20224;-67
2021/01/17 10:36:27;;;;;;;13.30;3.80;;;;;;;;;;5034527;28;20751;-67
2021/01/17 10:38:52;;;;;;;15.90;4.97;;;;;;;;;;5030967;28;20265;-67
2021/01/17 10:41:25;;;;;;;14.87;4.30;;;;;;;;;;5038365;28;20169;-67
2021/01/17 10:43:56;;;;;;;21.53;4.50;;;;;;;;;;5030287;28;20206;-67
2021/01/17 10:46:22;;;;;;;12.90;3.83;;;;;;;;;;5031761;28;20272;-67
2021/01/17 10:48:52;;;;;;;20.20;4.40;;;;;;;;;;5015064;28;20182;-67
2021/01/17 10:51:22;;;;;;;20.70;4.37;;;;;;;;;;5030857;28;20185;-67
2021/01/17 10:53:49;;;;;;;15.93;3.30;;;;;;;;;;5028675;28;20213;-67
2021/01/17 10:56:15;;;;;;;16.10;2.77;;;;;;;;;;5030534;28;20186;-68
2021/01/17 10:58:41;;;;;;;13.47;2.47;;;;;;;;;;5031661;28;20178;-68
2021/01/17 11:01:06;;;;;;;14.47;3.60;;;;;;;;;;5031848;28;20177;-67
2021/01/17 11:03:32;;;;;;;13.97;3.00;;;;;;;;;;5029037;28;20190;-67
2021/01/17 11:06:06;;;;;;;10.17;1.90;;;;;;;;;;5030855;28;20255;-67
2021/01/17 11:08:33;;;;;;;12.33;2.77;;;;;;;;;;5011313;28;20184;-68
2021/01/17 11:10:58;;;;;;;12.47;2.77;;;;;;;;;;5021460;28;20178;-67
2021/01/17 11:13:24;;;;;;;7.43;2.50;;;;;;;;;;5029052;28;20717;-68
2021/01/17 11:15:49;;;;;;;10.00;2.03;;;;;;;;;;5034252;28;20213;-67
2021/01/17 11:18:19;;;;;;;9.67;2.70;;;;;;;;;;5037521;28;20659;-68
2021/01/17 11:20:45;;;;;;;11.27;2.50;;;;;;;;;;5033767;28;20174;-67
2021/01/17 11:23:11;;;;;;;18.57;4.33;;;;;;;;;;5030117;28;20217;-68
2021/01/17 11:25:36;;;;;;;12.87;2.60;;;;;;;;;;5033018;28;20721;-67
2021/01/17 11:28:02;;;;;;;9.07;2.20;;;;;;;;;;5031736;28;20186;-69
2021/01/17 11:30:28;;;;;;;11.57;2.67;;;;;;;;;;5033801;28;20874;-68
2021/01/17 11:33:05;;;;;;;6.53;2.53;;;;;;;;;;5037394;28;20210;-68
2021/01/17 11:35:30;;;;;;;9.17;2.10;;;;;;;;;;5049648;28;20595;-68
2021/01/17 11:37:57;;;;;;;9.20;3.27;;;;;;;;;;5032402;28;20177;-68
2021/01/17 11:40:22;;;;;;;9.53;2.33;;;;;;;;;;5044682;28;20270;-68
2021/01/17 11:42:48;;;;;;;10.30;3.10;;;;;;;;;;5035954;28;20938;-68
2021/01/17 11:45:18;;;;;;;9.33;2.60;;;;;;;;;;5037630;28;20201;-68
2021/01/17 11:47:44;;;;;;;10.67;2.53;;;;;;;;;;5037027;28;20185;-68
2021/01/17 11:50:19;;;;;;;14.80;2.60;;;;;;;;;;5037115;28;20240;-68
2021/01/17 11:52:56;;;;;;;12.03;2.73;;;;;;;;;;5028857;28;20251;-68
2021/01/17 11:55:22;;;;;;;14.00;4.90;;;;;;;;;;5035006;28;20603;-69
2021/01/17 11:57:47;;;;;;;12.47;2.70;;;;;;;;;;5014386;28;20186;-68
2021/01/17 12:00:13;;;;;;;13.33;2.27;;;;;;;;;;5028789;28;20192;-67
2021/01/17 12:02:39;;;;;;;15.97;3.10;;;;;;;;;;5015726;28;20210;-68
2021/01/17 12:05:04;;;;;;;14.17;2.70;;;;;;;;;;5030022;28;20181;-68
2021/01/17 12:07:30;;;;;;;13.60;2.70;;;;;;;;;;5030297;28;20567;-69
2021/01/17 12:10:05;;;;;;;11.67;4.57;;;;;;;;;;5029775;28;20258;-68
2021/01/17 12:12:35;;;;;;;12.47;2.73;;;;;;;;;;5029587;28;20236;-68
2021/01/17 12:15:00;;;;;;;12.07;3.00;;;;;;;;;;5033781;28;20205;-68
2021/01/17 12:17:25;;;;;;;12.80;2.27;;;;;;;;;;5032947;28;20182;-68
2021/01/17 12:19:51;;;;;;;11.10;2.53;;;;;;;;;;5032223;28;20575;-67
2021/01/17 12:22:16;;;;;;;11.27;2.97;;;;;;;;;;5016575;28;20212;-68
2021/01/17 12:24:41;;;;;;;9.60;2.60;;;;;;;;;;5019569;28;21794;-69
2021/01/17 12:27:07;;;;;;;11.80;2.20;;;;;;;;;;5028588;28;20265;-68
2021/01/17 12:29:32;;;;;;;11.17;3.90;;;;;;;;;;5030723;28;20193;-68
2021/01/17 12:31:57;;;;;;;10.00;2.40;;;;;;;;;;5027254;28;20264;-67
2021/01/17 12:34:22;;;;;;;12.87;2.57;;;;;;;;;;5029742;28;20251;-68
2021/01/17 12:36:48;;;;;;;13.17;3.53;;;;;;;;;;5033236;28;20232;-67
2021/01/17 12:39:15;;;;;;;12.93;3.00;;;;;;;;;;5030935;28;20182;-68
2021/01/17 12:41:43;;;;;;;18.23;3.50;;;;;;;;;;5032021;28;20238;-68
2021/01/17 12:44:08;;;;;;;10.83;2.87;;;;;;;;;;5028727;28;20190;-68
2021/01/17 12:46:33;;;;;;;11.67;2.33;;;;;;;;;;5016633;28;20185;-68
2021/01/17 12:48:59;;;;;;;12.87;2.70;;;;;;;;;;5033236;28;20658;-69
2021/01/17 12:51:24;;;;;;;11.80;3.27;;;;;;;;;;5028493;28;20671;-68
2021/01/17 12:53:50;;;;;;;15.33;2.40;;;;;;;;;;5031311;28;20304;-68
2021/01/17 12:56:16;;;;;;;15.70;3.63;;;;;;;;;;5026212;28;20662;-68
2021/01/17 12:58:41;;;;;;;18.00;2.70;;;;;;;;;;5026852;28;20190;-68
2021/01/17 13:01:07;;;;;;;12.57;2.57;;;;;;;;;;5013996;28;20186;-67
2021/01/17 13:03:32;;;;;;;9.80;2.60;;;;;;;;;;5037078;28;20197;-68
2021/01/17 13:05:57;;;;;;;11.20;3.10;;;;;;;;;;5039635;28;20193;-68
2021/01/17 13:08:23;;;;;;;17.07;3.13;;;;;;;;;;5030134;28;20247;-69
2021/01/17 13:10:49;;;;;;;16.50;3.47;;;;;;;;;;5030504;28;20181;-68
2021/01/17 13:13:15;;;;;;;14.47;3.60;;;;;;;;;;5027974;28;20228;-68
2021/01/17 13:15:47;;;;;;;14.67;2.87;;;;;;;;;;5031945;28;20296;-67
2021/01/17 13:18:13;;;;;;;10.83;2.90;;;;;;;;;;5027350;28;20181;-68
2021/01/17 13:20:38;;;;;;;20.07;3.53;;;;;;;;;;5027363;28;20181;-68
2021/01/17 13:23:04;;;;;;;14.53;3.50;;;;;;;;;;5027288;28;20308;-68
2021/01/17 13:25:29;;;;;;;10.83;2.93;;;;;;;;;;5027041;28;20182;-67
2021/01/17 13:27:54;;;;;;;11.37;2.97;;;;;;;;;;5030665;28;20225;-67
2021/01/17 13:30:19;;;;;;;13.07;2.70;;;;;;;;;;5029471;28;20178;-68
2021/01/17 13:32:45;;;;;;;13.50;3.10;;;;;;;;;;5029494;28;20674;-68
2021/01/17 13:35:10;;;;;;;11.83;2.53;;;;;;;;;;5028881;28;20762;-68
2021/01/17 13:37:35;;;;;;;18.63;2.53;;;;;;;;;;5030712;28;20616;-67
2021/01/17 13:40:01;;;;;;;12.00;3.43;;;;;;;;;;5029689;28;20529;-68
2021/01/17 13:42:28;;;;;;;17.80;4.37;;;;;;;;;;5030142;28;20554;-68
2021/01/17 13:44:54;;;;;;;15.70;2.80;;;;;;;;;;5034797;28;20193;-68
2021/01/17 13:47:20;;;;;;;20.93;2.80;;;;;;;;;;5030373;28;20185;-67
2021/01/17 13:49:46;;;;;;;13.67;3.20;;;;;;;;;;5029155;28;20674;-69
2021/01/17 13:52:11;;;;;;;13.93;3.00;;;;;;;;;;5029214;28;20185;-68
2021/01/17 13:54:36;;;;;;;11.30;2.83;;;;;;;;;;5028792;28;20236;-69
2021/01/17 13:57:01;;;;;;;18.38;3.38;;;;;;;;;;5014118;28;20170;-68
2021/01/17 13:59:26;;;;;;;16.13;2.93;;;;;;;;;;5031140;28;20183;-68
2021/01/17 14:01:52;;;;;;;16.37;3.10;;;;;;;;;;5015643;28;20446;-68
2021/01/17 14:04:17;;;;;;;10.40;3.83;;;;;;;;;;5035492;28;20254;-68
2021/01/17 14:06:42;;;;;;;12.33;1.90;;;;;;;;;;5032143;28;20191;-70
2021/01/17 14:09:08;;;;;;;15.93;3.30;;;;;;;;;;5031814;28;20209;-68
2021/01/17 14:11:33;;;;;;;10.47;2.37;;;;;;;;;;5030024;28;20189;-68
2021/01/17 14:13:59;;;;;;;13.87;3.20;;;;;;;;;;5030198;28;20280;-68
2021/01/17 14:16:24;;;;;;;10.93;2.70;;;;;;;;;;5038294;28;20181;-68
2021/01/17 14:18:49;;;;;;;11.57;1.83;;;;;;;;;;5034100;28;20170;-72
2021/01/17 14:21:14;;;;;;;12.20;2.30;;;;;;;;;;5032018;28;20599;-68
2021/01/17 14:23:40;;;;;;;14.20;2.87;;;;;;;;;;5032560;28;20212;-68